sensor_id;sensor_type;location;lat;lon;timestamp;P1;durP1;ratioP1;P2;durP2;ratioP2
59728;SDS011;45588;51.598;5.618;2022-09-03T00:01:58;10.20;;;4.43;;
59728;SDS011;45588;51.598;5.618;2022-09-03T00:04:46;7.03;;;3.85;;
59728;SDS011;45588;51.598;5.618;2022-09-03T00:07:46;4.35;;;3.42;;
59728;SDS011;45588;51.598;5.618;2022-09-03T00:13:18;5.57;;;3.95;;
59728;SDS011;45588;51.598;5.618;2022-09-03T00:15:48;6.50;;;4.35;;
59728;SDS011;45588;51.598;5.618;2022-09-03T00:18:22;4.00;;;3.58;;
59728;SDS011;45588;51.598;5.618;2022-09-03T00:20:55;8.40;;;4.30;;
59728;SDS011;45588;51.598;5.618;2022-09-03T00:23:32;4.53;;;3.60;;
59728;SDS011;45588;51.598;5.618;2022-09-03T00:31:15;9.52;;;3.90;;
59728;SDS011;45588;51.598;5.618;2022-09-03T00:33:49;5.63;;;4.05;;
59728;SDS011;45588;51.598;5.618;2022-09-03T00:36:22;4.30;;;3.85;;
59728;SDS011;45588;51.598;5.618;2022-09-03T00:38:56;5.38;;;3.83;;
59728;SDS011;45588;51.598;5.618;2022-09-03T00:41:32;5.25;;;3.90;;
59728;SDS011;45588;51.598;5.618;2022-09-03T00:44:19;8.75;;;3.70;;
59728;SDS011;45588;51.598;5.618;2022-09-03T00:46:59;6.00;;;3.55;;
59728;SDS011;45588;51.598;5.618;2022-09-03T00:49:43;5.95;;;4.18;;
59728;SDS011;45588;51.598;5.618;2022-09-03T00:55:26;6.93;;;4.18;;
59728;SDS011;45588;51.598;5.618;2022-09-03T01:00:44;8.05;;;4.97;;
59728;SDS011;45588;51.598;5.618;2022-09-03T01:03:11;8.07;;;4.40;;
59728;SDS011;45588;51.598;5.618;2022-09-03T01:20:01;5.85;;;4.05;;
59728;SDS011;45588;51.598;5.618;2022-09-03T01:28:08;7.45;;;4.18;;
59728;SDS011;45588;51.598;5.618;2022-09-03T01:30:44;7.85;;;4.75;;
59728;SDS011;45588;51.598;5.618;2022-09-03T01:33:24;5.57;;;4.90;;
59728;SDS011;45588;51.598;5.618;2022-09-03T01:36:05;8.70;;;4.28;;
59728;SDS011;45588;51.598;5.618;2022-09-03T01:38:51;5.15;;;4.63;;
59728;SDS011;45588;51.598;5.618;2022-09-03T01:46:41;6.85;;;4.65;;
59728;SDS011;45588;51.598;5.618;2022-09-03T01:49:53;6.10;;;4.25;;
59728;SDS011;45588;51.598;5.618;2022-09-03T01:52:11;8.25;;;4.63;;
59728;SDS011;45588;51.598;5.618;2022-09-03T01:54:54;6.55;;;4.75;;
59728;SDS011;45588;51.598;5.618;2022-09-03T01:57:37;6.75;;;4.50;;
59728;SDS011;45588;51.598;5.618;2022-09-03T02:00:11;5.50;;;4.70;;
59728;SDS011;45588;51.598;5.618;2022-09-03T02:02:39;6.07;;;4.53;;
59728;SDS011;45588;51.598;5.618;2022-09-03T02:05:11;6.13;;;4.47;;
59728;SDS011;45588;51.598;5.618;2022-09-03T02:07:55;6.68;;;4.60;;
59728;SDS011;45588;51.598;5.618;2022-09-03T02:13:01;9.38;;;4.93;;
59728;SDS011;45588;51.598;5.618;2022-09-03T02:15:31;7.22;;;4.93;;
59728;SDS011;45588;51.598;5.618;2022-09-03T02:18:00;5.20;;;4.68;;
59728;SDS011;45588;51.598;5.618;2022-09-03T02:20:28;6.03;;;4.22;;
59728;SDS011;45588;51.598;5.618;2022-09-03T02:22:54;8.93;;;4.82;;
59728;SDS011;45588;51.598;5.618;2022-09-03T02:25:22;12.35;;;4.15;;
59728;SDS011;45588;51.598;5.618;2022-09-03T02:27:53;6.70;;;4.35;;
59728;SDS011;45588;51.598;5.618;2022-09-03T02:30:19;6.65;;;4.70;;
59728;SDS011;45588;51.598;5.618;2022-09-03T02:32:44;5.63;;;4.55;;
59728;SDS011;45588;51.598;5.618;2022-09-03T02:35:10;9.50;;;4.78;;
59728;SDS011;45588;51.598;5.618;2022-09-03T02:37:36;7.50;;;5.38;;
59728;SDS011;45588;51.598;5.618;2022-09-03T02:40:02;6.40;;;4.18;;
59728;SDS011;45588;51.598;5.618;2022-09-03T02:42:32;7.40;;;4.40;;
59728;SDS011;45588;51.598;5.618;2022-09-03T02:44:59;8.10;;;4.35;;
59728;SDS011;45588;51.598;5.618;2022-09-03T02:47:35;6.90;;;4.57;;
59728;SDS011;45588;51.598;5.618;2022-09-03T02:50:04;6.65;;;4.57;;
59728;SDS011;45588;51.598;5.618;2022-09-03T02:52:30;7.38;;;4.35;;
59728;SDS011;45588;51.598;5.618;2022-09-03T02:54:55;5.22;;;4.40;;
59728;SDS011;45588;51.598;5.618;2022-09-03T02:57:20;7.80;;;4.35;;
59728;SDS011;45588;51.598;5.618;2022-09-03T02:59:46;6.22;;;4.40;;
59728;SDS011;45588;51.598;5.618;2022-09-03T03:02:12;6.55;;;5.00;;
59728;SDS011;45588;51.598;5.618;2022-09-03T03:04:38;5.40;;;4.40;;
59728;SDS011;45588;51.598;5.618;2022-09-03T03:07:04;5.07;;;4.57;;
59728;SDS011;45588;51.598;5.618;2022-09-03T03:09:30;5.38;;;4.38;;
59728;SDS011;45588;51.598;5.618;2022-09-03T03:11:55;5.57;;;4.45;;
59728;SDS011;45588;51.598;5.618;2022-09-03T03:14:21;7.60;;;4.45;;
59728;SDS011;45588;51.598;5.618;2022-09-03T03:16:46;5.90;;;5.15;;
59728;SDS011;45588;51.598;5.618;2022-09-03T03:19:12;9.60;;;4.65;;
59728;SDS011;45588;51.598;5.618;2022-09-03T03:21:38;5.75;;;4.50;;
59728;SDS011;45588;51.598;5.618;2022-09-03T03:24:03;9.75;;;4.47;;
59728;SDS011;45588;51.598;5.618;2022-09-03T03:26:28;12.48;;;4.63;;
59728;SDS011;45588;51.598;5.618;2022-09-03T03:28:55;5.93;;;4.75;;
59728;SDS011;45588;51.598;5.618;2022-09-03T03:31:22;6.78;;;4.40;;
59728;SDS011;45588;51.598;5.618;2022-09-03T03:33:51;7.45;;;4.82;;
59728;SDS011;45588;51.598;5.618;2022-09-03T03:36:18;7.53;;;4.90;;
59728;SDS011;45588;51.598;5.618;2022-09-03T03:38:44;5.32;;;4.30;;
59728;SDS011;45588;51.598;5.618;2022-09-03T03:41:11;5.00;;;4.50;;
59728;SDS011;45588;51.598;5.618;2022-09-03T03:43:41;6.35;;;4.82;;
59728;SDS011;45588;51.598;5.618;2022-09-03T03:46:08;7.70;;;5.53;;
59728;SDS011;45588;51.598;5.618;2022-09-03T03:48:34;5.72;;;4.70;;
59728;SDS011;45588;51.598;5.618;2022-09-03T03:51:04;5.38;;;4.60;;
59728;SDS011;45588;51.598;5.618;2022-09-03T03:53:31;5.95;;;4.75;;
59728;SDS011;45588;51.598;5.618;2022-09-03T03:55:59;9.43;;;4.63;;
59728;SDS011;45588;51.598;5.618;2022-09-03T03:58:26;8.60;;;4.70;;
59728;SDS011;45588;51.598;5.618;2022-09-03T04:00:53;7.82;;;4.18;;
59728;SDS011;45588;51.598;5.618;2022-09-03T04:03:18;9.05;;;5.40;;
59728;SDS011;45588;51.598;5.618;2022-09-03T04:05:56;7.20;;;4.97;;
59728;SDS011;45588;51.598;5.618;2022-09-03T04:08:23;7.13;;;4.40;;
59728;SDS011;45588;51.598;5.618;2022-09-03T04:10:49;8.13;;;4.63;;
59728;SDS011;45588;51.598;5.618;2022-09-03T04:13:15;6.72;;;4.72;;
59728;SDS011;45588;51.598;5.618;2022-09-03T04:15:41;8.48;;;4.70;;
59728;SDS011;45588;51.598;5.618;2022-09-03T04:18:06;16.38;;;5.95;;
59728;SDS011;45588;51.598;5.618;2022-09-03T04:20:32;5.20;;;4.13;;
59728;SDS011;45588;51.598;5.618;2022-09-03T04:22:59;10.52;;;4.25;;
59728;SDS011;45588;51.598;5.618;2022-09-03T04:25:25;6.00;;;3.30;;
59728;SDS011;45588;51.598;5.618;2022-09-03T04:27:50;7.65;;;4.05;;
59728;SDS011;45588;51.598;5.618;2022-09-03T04:30:16;7.55;;;4.50;;
59728;SDS011;45588;51.598;5.618;2022-09-03T04:32:41;5.57;;;4.13;;
59728;SDS011;45588;51.598;5.618;2022-09-03T04:35:20;9.80;;;4.65;;
59728;SDS011;45588;51.598;5.618;2022-09-03T04:37:47;10.30;;;3.80;;
59728;SDS011;45588;51.598;5.618;2022-09-03T04:40:12;6.55;;;4.05;;
59728;SDS011;45588;51.598;5.618;2022-09-03T04:42:38;8.50;;;4.07;;
59728;SDS011;45588;51.598;5.618;2022-09-03T04:45:03;5.35;;;3.90;;
59728;SDS011;45588;51.598;5.618;2022-09-03T04:47:29;9.07;;;3.97;;
59728;SDS011;45588;51.598;5.618;2022-09-03T04:49:55;5.68;;;4.60;;
59728;SDS011;45588;51.598;5.618;2022-09-03T04:52:20;7.68;;;4.95;;
59728;SDS011;45588;51.598;5.618;2022-09-03T04:54:45;6.43;;;4.45;;
59728;SDS011;45588;51.598;5.618;2022-09-03T04:57:11;6.45;;;4.60;;
59728;SDS011;45588;51.598;5.618;2022-09-03T04:59:37;9.73;;;4.93;;
59728;SDS011;45588;51.598;5.618;2022-09-03T05:02:02;5.13;;;4.53;;
59728;SDS011;45588;51.598;5.618;2022-09-03T05:04:28;8.63;;;4.40;;
59728;SDS011;45588;51.598;5.618;2022-09-03T05:06:53;6.15;;;3.80;;
59728;SDS011;45588;51.598;5.618;2022-09-03T05:09:18;7.10;;;4.70;;
59728;SDS011;45588;51.598;5.618;2022-09-03T05:11:43;5.93;;;4.00;;
59728;SDS011;45588;51.598;5.618;2022-09-03T05:14:09;8.30;;;4.15;;
59728;SDS011;45588;51.598;5.618;2022-09-03T05:16:36;5.80;;;3.80;;
59728;SDS011;45588;51.598;5.618;2022-09-03T05:19:02;5.50;;;4.45;;
59728;SDS011;45588;51.598;5.618;2022-09-03T05:21:31;6.78;;;3.67;;
59728;SDS011;45588;51.598;5.618;2022-09-03T05:23:59;6.32;;;3.70;;
59728;SDS011;45588;51.598;5.618;2022-09-03T05:26:26;5.40;;;4.60;;
59728;SDS011;45588;51.598;5.618;2022-09-03T05:28:54;6.68;;;4.40;;
59728;SDS011;45588;51.598;5.618;2022-09-03T05:31:22;5.35;;;3.67;;
59728;SDS011;45588;51.598;5.618;2022-09-03T05:33:50;6.85;;;5.25;;
59728;SDS011;45588;51.598;5.618;2022-09-03T05:36:21;8.35;;;3.97;;
59728;SDS011;45588;51.598;5.618;2022-09-03T05:38:47;6.45;;;4.35;;
59728;SDS011;45588;51.598;5.618;2022-09-03T05:41:14;5.20;;;4.13;;
59728;SDS011;45588;51.598;5.618;2022-09-03T05:43:41;6.07;;;4.90;;
59728;SDS011;45588;51.598;5.618;2022-09-03T05:46:07;8.63;;;4.57;;
59728;SDS011;45588;51.598;5.618;2022-09-03T05:48:37;6.22;;;4.72;;
59728;SDS011;45588;51.598;5.618;2022-09-03T05:51:07;8.45;;;3.90;;
59728;SDS011;45588;51.598;5.618;2022-09-03T05:53:38;4.45;;;3.75;;
59728;SDS011;45588;51.598;5.618;2022-09-03T05:56:07;7.47;;;4.32;;
59728;SDS011;45588;51.598;5.618;2022-09-03T05:58:40;6.32;;;4.40;;
59728;SDS011;45588;51.598;5.618;2022-09-03T06:01:10;9.32;;;5.32;;
59728;SDS011;45588;51.598;5.618;2022-09-03T06:03:38;5.93;;;3.88;;
59728;SDS011;45588;51.598;5.618;2022-09-03T06:06:04;10.10;;;4.90;;
59728;SDS011;45588;51.598;5.618;2022-09-03T06:08:31;7.88;;;3.92;;
59728;SDS011;45588;51.598;5.618;2022-09-03T06:10:57;7.15;;;3.85;;
59728;SDS011;45588;51.598;5.618;2022-09-03T06:13:23;6.32;;;4.25;;
59728;SDS011;45588;51.598;5.618;2022-09-03T06:15:48;5.82;;;3.70;;
59728;SDS011;45588;51.598;5.618;2022-09-03T06:18:13;8.70;;;4.88;;
59728;SDS011;45588;51.598;5.618;2022-09-03T06:20:39;3.92;;;3.53;;
59728;SDS011;45588;51.598;5.618;2022-09-03T06:23:04;5.60;;;3.47;;
59728;SDS011;45588;51.598;5.618;2022-09-03T06:25:29;10.50;;;3.95;;
59728;SDS011;45588;51.598;5.618;2022-09-03T06:27:55;8.93;;;4.20;;
59728;SDS011;45588;51.598;5.618;2022-09-03T06:30:21;4.55;;;3.30;;
59728;SDS011;45588;51.598;5.618;2022-09-03T06:32:48;11.93;;;3.20;;
59728;SDS011;45588;51.598;5.618;2022-09-03T06:35:17;10.55;;;3.85;;
59728;SDS011;45588;51.598;5.618;2022-09-03T06:37:42;6.90;;;4.05;;
59728;SDS011;45588;51.598;5.618;2022-09-03T06:40:09;7.82;;;3.30;;
59728;SDS011;45588;51.598;5.618;2022-09-03T06:42:40;6.50;;;2.90;;
59728;SDS011;45588;51.598;5.618;2022-09-03T06:45:07;8.43;;;3.53;;
59728;SDS011;45588;51.598;5.618;2022-09-03T06:47:33;8.85;;;2.88;;
59728;SDS011;45588;51.598;5.618;2022-09-03T06:49:59;19.40;;;3.92;;
59728;SDS011;45588;51.598;5.618;2022-09-03T06:52:25;6.07;;;3.08;;
59728;SDS011;45588;51.598;5.618;2022-09-03T06:54:51;8.82;;;2.95;;
59728;SDS011;45588;51.598;5.618;2022-09-03T06:57:16;11.50;;;2.85;;
59728;SDS011;45588;51.598;5.618;2022-09-03T06:59:42;3.28;;;2.80;;
59728;SDS011;45588;51.598;5.618;2022-09-03T07:02:08;5.43;;;2.83;;
59728;SDS011;45588;51.598;5.618;2022-09-03T07:04:33;9.43;;;2.58;;
59728;SDS011;45588;51.598;5.618;2022-09-03T07:06:59;5.22;;;2.25;;
59728;SDS011;45588;51.598;5.618;2022-09-03T07:09:25;8.63;;;3.03;;
59728;SDS011;45588;51.598;5.618;2022-09-03T07:11:51;7.22;;;2.50;;
59728;SDS011;45588;51.598;5.618;2022-09-03T07:14:17;4.95;;;2.92;;
59728;SDS011;45588;51.598;5.618;2022-09-03T07:16:44;5.63;;;2.10;;
59728;SDS011;45588;51.598;5.618;2022-09-03T07:19:10;6.82;;;2.63;;
59728;SDS011;45588;51.598;5.618;2022-09-03T07:21:37;5.78;;;2.45;;
59728;SDS011;45588;51.598;5.618;2022-09-03T07:24:05;4.55;;;2.47;;
59728;SDS011;45588;51.598;5.618;2022-09-03T07:26:32;11.82;;;2.85;;
59728;SDS011;45588;51.598;5.618;2022-09-03T07:28:59;5.28;;;2.35;;
59728;SDS011;45588;51.598;5.618;2022-09-03T07:31:30;4.63;;;2.45;;
59728;SDS011;45588;51.598;5.618;2022-09-03T07:33:58;8.40;;;2.55;;
59728;SDS011;45588;51.598;5.618;2022-09-03T07:36:34;3.35;;;2.00;;
59728;SDS011;45588;51.598;5.618;2022-09-03T07:39:03;4.93;;;2.53;;
59728;SDS011;45588;51.598;5.618;2022-09-03T07:41:29;9.45;;;2.78;;
59728;SDS011;45588;51.598;5.618;2022-09-03T07:43:57;8.15;;;2.40;;
59728;SDS011;45588;51.598;5.618;2022-09-03T07:46:24;5.68;;;2.50;;
59728;SDS011;45588;51.598;5.618;2022-09-03T07:48:54;5.60;;;3.10;;
59728;SDS011;45588;51.598;5.618;2022-09-03T07:53:50;4.75;;;2.65;;
59728;SDS011;45588;51.598;5.618;2022-09-03T07:56:17;9.93;;;3.33;;
59728;SDS011;45588;51.598;5.618;2022-09-03T07:58:42;8.02;;;2.85;;
59728;SDS011;45588;51.598;5.618;2022-09-03T08:01:09;9.70;;;3.17;;
59728;SDS011;45588;51.598;5.618;2022-09-03T08:03:36;8.93;;;3.00;;
59728;SDS011;45588;51.598;5.618;2022-09-03T08:06:04;7.72;;;2.70;;
59728;SDS011;45588;51.598;5.618;2022-09-03T08:08:31;8.85;;;3.17;;
59728;SDS011;45588;51.598;5.618;2022-09-03T08:11:04;7.55;;;3.22;;
59728;SDS011;45588;51.598;5.618;2022-09-03T08:13:31;6.22;;;2.92;;
59728;SDS011;45588;51.598;5.618;2022-09-03T08:15:58;7.35;;;2.97;;
59728;SDS011;45588;51.598;5.618;2022-09-03T08:18:25;5.95;;;2.95;;
59728;SDS011;45588;51.598;5.618;2022-09-03T08:20:51;6.60;;;2.85;;
59728;SDS011;45588;51.598;5.618;2022-09-03T08:23:16;7.10;;;2.47;;
59728;SDS011;45588;51.598;5.618;2022-09-03T08:25:41;7.03;;;2.90;;
59728;SDS011;45588;51.598;5.618;2022-09-03T08:28:08;7.53;;;2.80;;
59728;SDS011;45588;51.598;5.618;2022-09-03T08:30:33;6.97;;;2.65;;
59728;SDS011;45588;51.598;5.618;2022-09-03T08:33:00;8.13;;;2.55;;
59728;SDS011;45588;51.598;5.618;2022-09-03T08:35:28;11.70;;;2.88;;
59728;SDS011;45588;51.598;5.618;2022-09-03T08:37:55;8.43;;;2.78;;
59728;SDS011;45588;51.598;5.618;2022-09-03T08:40:21;8.68;;;3.30;;
59728;SDS011;45588;51.598;5.618;2022-09-03T08:42:52;8.38;;;2.72;;
59728;SDS011;45588;51.598;5.618;2022-09-03T08:45:30;9.55;;;2.90;;
59728;SDS011;45588;51.598;5.618;2022-09-03T08:48:13;6.60;;;2.53;;
59728;SDS011;45588;51.598;5.618;2022-09-03T08:50:46;6.68;;;2.90;;
59728;SDS011;45588;51.598;5.618;2022-09-03T08:53:20;3.60;;;2.70;;
59728;SDS011;45588;51.598;5.618;2022-09-03T08:55:57;6.07;;;2.90;;
59728;SDS011;45588;51.598;5.618;2022-09-03T08:58:28;10.70;;;2.53;;
59728;SDS011;45588;51.598;5.618;2022-09-03T09:12:28;8.80;;;2.63;;
59728;SDS011;45588;51.598;5.618;2022-09-03T09:23:14;8.38;;;2.35;;
59728;SDS011;45588;51.598;5.618;2022-09-03T09:25:48;5.90;;;2.00;;
59728;SDS011;45588;51.598;5.618;2022-09-03T09:28:16;6.70;;;2.00;;
59728;SDS011;45588;51.598;5.618;2022-09-03T09:30:50;6.20;;;2.22;;
59728;SDS011;45588;51.598;5.618;2022-09-03T09:33:19;8.07;;;2.30;;
59728;SDS011;45588;51.598;5.618;2022-09-03T09:35:45;7.38;;;2.53;;
59728;SDS011;45588;51.598;5.618;2022-09-03T09:38:11;4.22;;;2.45;;
59728;SDS011;45588;51.598;5.618;2022-09-03T09:40:38;7.70;;;2.22;;
59728;SDS011;45588;51.598;5.618;2022-09-03T09:45:40;4.35;;;2.30;;
59728;SDS011;45588;51.598;5.618;2022-09-03T09:51:16;4.88;;;2.00;;
59728;SDS011;45588;51.598;5.618;2022-09-03T09:53:44;7.18;;;2.40;;
59728;SDS011;45588;51.598;5.618;2022-09-03T09:56:22;3.72;;;1.88;;
59728;SDS011;45588;51.598;5.618;2022-09-03T09:58:49;2.33;;;2.00;;
59728;SDS011;45588;51.598;5.618;2022-09-03T10:01:25;5.50;;;1.88;;
59728;SDS011;45588;51.598;5.618;2022-09-03T10:03:55;4.95;;;2.30;;
59728;SDS011;45588;51.598;5.618;2022-09-03T10:06:22;3.08;;;1.92;;
59728;SDS011;45588;51.598;5.618;2022-09-03T10:09:12;4.15;;;2.05;;
59728;SDS011;45588;51.598;5.618;2022-09-03T10:11:44;2.92;;;2.10;;
59728;SDS011;45588;51.598;5.618;2022-09-03T10:14:20;5.93;;;2.20;;
59728;SDS011;45588;51.598;5.618;2022-09-03T10:16:49;10.32;;;2.50;;
59728;SDS011;45588;51.598;5.618;2022-09-03T10:19:25;6.85;;;2.42;;
59728;SDS011;45588;51.598;5.618;2022-09-03T10:22:06;3.28;;;2.17;;
59728;SDS011;45588;51.598;5.618;2022-09-03T10:24:52;2.72;;;1.98;;
59728;SDS011;45588;51.598;5.618;2022-09-03T10:27:22;5.05;;;2.17;;
59728;SDS011;45588;51.598;5.618;2022-09-03T10:29:48;5.30;;;1.90;;
59728;SDS011;45588;51.598;5.618;2022-09-03T10:35:33;2.70;;;1.67;;
59728;SDS011;45588;51.598;5.618;2022-09-03T10:40:54;7.13;;;2.33;;
59728;SDS011;45588;51.598;5.618;2022-09-03T10:54:31;5.25;;;2.40;;
59728;SDS011;45588;51.598;5.618;2022-09-03T10:59:45;3.92;;;1.95;;
59728;SDS011;45588;51.598;5.618;2022-09-03T11:02:36;6.53;;;2.53;;
59728;SDS011;45588;51.598;5.618;2022-09-03T11:05:07;5.28;;;1.88;;
59728;SDS011;45588;51.598;5.618;2022-09-03T11:07:41;3.25;;;1.75;;
59728;SDS011;45588;51.598;5.618;2022-09-03T11:13:19;4.70;;;2.20;;
59728;SDS011;45588;51.598;5.618;2022-09-03T11:15:51;3.25;;;1.70;;
59728;SDS011;45588;51.598;5.618;2022-09-03T11:21:27;3.65;;;2.10;;
59728;SDS011;45588;51.598;5.618;2022-09-03T11:24:06;4.30;;;1.73;;
59728;SDS011;45588;51.598;5.618;2022-09-03T11:26:52;3.63;;;1.70;;
59728;SDS011;45588;51.598;5.618;2022-09-03T11:29:42;3.90;;;1.80;;
59728;SDS011;45588;51.598;5.618;2022-09-03T11:32:20;7.75;;;2.28;;
59728;SDS011;45588;51.598;5.618;2022-09-03T11:34:58;4.20;;;1.90;;
59728;SDS011;45588;51.598;5.618;2022-09-03T11:37:24;6.32;;;1.98;;
59728;SDS011;45588;51.598;5.618;2022-09-03T11:39:58;6.75;;;1.90;;
59728;SDS011;45588;51.598;5.618;2022-09-03T11:42:33;4.35;;;2.08;;
59728;SDS011;45588;51.598;5.618;2022-09-03T11:45:19;4.95;;;2.10;;
59728;SDS011;45588;51.598;5.618;2022-09-03T11:52:49;4.28;;;2.30;;
59728;SDS011;45588;51.598;5.618;2022-09-03T11:55:27;5.47;;;2.13;;
59728;SDS011;45588;51.598;5.618;2022-09-03T11:57:55;2.97;;;2.00;;
59728;SDS011;45588;51.598;5.618;2022-09-03T12:00:21;4.88;;;2.05;;
59728;SDS011;45588;51.598;5.618;2022-09-03T12:02:54;7.07;;;2.10;;
59728;SDS011;45588;51.598;5.618;2022-09-03T12:07:59;4.65;;;1.83;;
59728;SDS011;45588;51.598;5.618;2022-09-03T12:10:52;2.60;;;2.25;;
59728;SDS011;45588;51.598;5.618;2022-09-03T12:13:50;3.85;;;1.80;;
59728;SDS011;45588;51.598;5.618;2022-09-03T12:19:10;5.57;;;2.05;;
59728;SDS011;45588;51.598;5.618;2022-09-03T12:21:46;2.45;;;2.00;;
59728;SDS011;45588;51.598;5.618;2022-09-03T12:24:13;7.03;;;2.13;;
59728;SDS011;45588;51.598;5.618;2022-09-03T12:26:40;4.07;;;2.03;;
59728;SDS011;45588;51.598;5.618;2022-09-03T12:29:10;7.72;;;2.33;;
59728;SDS011;45588;51.598;5.618;2022-09-03T12:31:47;2.90;;;1.90;;
59728;SDS011;45588;51.598;5.618;2022-09-03T12:34:15;3.90;;;2.53;;
59728;SDS011;45588;51.598;5.618;2022-09-03T12:36:42;4.97;;;2.42;;
59728;SDS011;45588;51.598;5.618;2022-09-03T12:39:15;6.13;;;2.28;;
59728;SDS011;45588;51.598;5.618;2022-09-03T12:42:04;5.88;;;2.33;;
59728;SDS011;45588;51.598;5.618;2022-09-03T12:44:36;6.35;;;2.10;;
59728;SDS011;45588;51.598;5.618;2022-09-03T12:47:06;5.53;;;2.30;;
59728;SDS011;45588;51.598;5.618;2022-09-03T12:49:39;5.80;;;2.13;;
59728;SDS011;45588;51.598;5.618;2022-09-03T12:52:20;5.22;;;2.42;;
59728;SDS011;45588;51.598;5.618;2022-09-03T12:55:01;6.63;;;2.58;;
59728;SDS011;45588;51.598;5.618;2022-09-03T13:00:07;5.35;;;2.20;;
59728;SDS011;45588;51.598;5.618;2022-09-03T13:02:39;6.22;;;1.95;;
59728;SDS011;45588;51.598;5.618;2022-09-03T13:05:14;3.13;;;2.30;;
59728;SDS011;45588;51.598;5.618;2022-09-03T13:07:45;4.80;;;2.05;;
59728;SDS011;45588;51.598;5.618;2022-09-03T13:10:28;4.78;;;2.00;;
59728;SDS011;45588;51.598;5.618;2022-09-03T13:13:05;5.72;;;2.10;;
59728;SDS011;45588;51.598;5.618;2022-09-03T13:15:41;6.28;;;2.15;;
59728;SDS011;45588;51.598;5.618;2022-09-03T13:26:38;3.85;;;2.17;;
59728;SDS011;45588;51.598;5.618;2022-09-03T13:34:49;5.43;;;2.10;;
59728;SDS011;45588;51.598;5.618;2022-09-03T13:37:25;6.38;;;2.55;;
59728;SDS011;45588;51.598;5.618;2022-09-03T13:39:56;4.25;;;2.25;;
59728;SDS011;45588;51.598;5.618;2022-09-03T13:42:26;3.65;;;2.60;;
59728;SDS011;45588;51.598;5.618;2022-09-03T13:45:02;6.80;;;3.00;;
59728;SDS011;45588;51.598;5.618;2022-09-03T13:47:38;6.50;;;2.33;;
59728;SDS011;45588;51.598;5.618;2022-09-03T13:50:28;4.30;;;2.28;;
59728;SDS011;45588;51.598;5.618;2022-09-03T13:53:08;4.90;;;2.35;;
59728;SDS011;45588;51.598;5.618;2022-09-03T13:55:47;6.28;;;2.38;;
59728;SDS011;45588;51.598;5.618;2022-09-03T14:00:53;6.72;;;2.33;;
59728;SDS011;45588;51.598;5.618;2022-09-03T14:03:35;5.55;;;2.30;;
59728;SDS011;45588;51.598;5.618;2022-09-03T14:14:22;6.30;;;2.75;;
59728;SDS011;45588;51.598;5.618;2022-09-03T14:17:01;3.08;;;2.78;;
59728;SDS011;45588;51.598;5.618;2022-09-03T14:19:38;5.40;;;2.67;;
59728;SDS011;45588;51.598;5.618;2022-09-03T14:22:12;5.10;;;1.92;;
59728;SDS011;45588;51.598;5.618;2022-09-03T14:27:30;3.42;;;2.30;;
59728;SDS011;45588;51.598;5.618;2022-09-03T14:30:00;4.05;;;2.80;;
59728;SDS011;45588;51.598;5.618;2022-09-03T14:32:36;4.32;;;2.75;;
59728;SDS011;45588;51.598;5.618;2022-09-03T14:40:45;4.57;;;2.70;;
59728;SDS011;45588;51.598;5.618;2022-09-03T14:43:26;4.50;;;3.00;;
59728;SDS011;45588;51.598;5.618;2022-09-03T14:46:14;5.47;;;2.63;;
59728;SDS011;45588;51.598;5.618;2022-09-03T14:57:30;3.90;;;2.90;;
59728;SDS011;45588;51.598;5.618;2022-09-03T15:00:05;4.35;;;3.00;;
59728;SDS011;45588;51.598;5.618;2022-09-03T15:02:40;10.23;;;3.15;;
59728;SDS011;45588;51.598;5.618;2022-09-03T15:11:16;5.05;;;2.95;;
59728;SDS011;45588;51.598;5.618;2022-09-03T15:13:46;5.63;;;2.60;;
59728;SDS011;45588;51.598;5.618;2022-09-03T15:16:30;3.50;;;3.00;;
59728;SDS011;45588;51.598;5.618;2022-09-03T15:21:45;5.35;;;3.15;;
59728;SDS011;45588;51.598;5.618;2022-09-03T15:27:11;5.05;;;3.05;;
59728;SDS011;45588;51.598;5.618;2022-09-03T15:29:47;8.10;;;3.78;;
59728;SDS011;45588;51.598;5.618;2022-09-03T15:32:39;7.63;;;3.17;;
59728;SDS011;45588;51.598;5.618;2022-09-03T15:38:04;6.05;;;3.33;;
59728;SDS011;45588;51.598;5.618;2022-09-03T15:43:10;4.13;;;2.80;;
59728;SDS011;45588;51.598;5.618;2022-09-03T15:56:35;5.90;;;2.97;;
59728;SDS011;45588;51.598;5.618;2022-09-03T16:02:02;6.25;;;2.97;;
59728;SDS011;45588;51.598;5.618;2022-09-03T16:04:39;5.18;;;3.00;;
59728;SDS011;45588;51.598;5.618;2022-09-03T16:07:20;6.35;;;3.17;;
59728;SDS011;45588;51.598;5.618;2022-09-03T16:15:26;5.63;;;3.33;;
59728;SDS011;45588;51.598;5.618;2022-09-03T16:23:25;7.22;;;3.17;;
59728;SDS011;45588;51.598;5.618;2022-09-03T16:25:59;3.92;;;3.10;;
59728;SDS011;45588;51.598;5.618;2022-09-03T16:28:42;5.53;;;3.15;;
59728;SDS011;45588;51.598;5.618;2022-09-03T16:34:19;6.43;;;3.37;;
59728;SDS011;45588;51.598;5.618;2022-09-03T16:40:02;6.43;;;2.75;;
59728;SDS011;45588;51.598;5.618;2022-09-03T16:42:39;7.55;;;3.33;;
59728;SDS011;45588;51.598;5.618;2022-09-03T16:50:42;6.20;;;3.67;;
59728;SDS011;45588;51.598;5.618;2022-09-03T16:53:12;7.97;;;3.55;;
59728;SDS011;45588;51.598;5.618;2022-09-03T16:55:48;6.88;;;3.25;;
59728;SDS011;45588;51.598;5.618;2022-09-03T17:01:17;6.40;;;3.80;;
59728;SDS011;45588;51.598;5.618;2022-09-03T17:04:03;6.45;;;3.72;;
59728;SDS011;45588;51.598;5.618;2022-09-03T17:12:38;7.07;;;4.57;;
59728;SDS011;45588;51.598;5.618;2022-09-03T17:21:02;9.33;;;4.70;;
59728;SDS011;45588;51.598;5.618;2022-09-03T17:37:57;7.72;;;4.28;;
59728;SDS011;45588;51.598;5.618;2022-09-03T17:43:44;4.90;;;4.30;;
59728;SDS011;45588;51.598;5.618;2022-09-03T17:49:28;9.75;;;4.07;;
59728;SDS011;45588;51.598;5.618;2022-09-03T17:56:59;6.47;;;5.38;;
59728;SDS011;45588;51.598;5.618;2022-09-03T18:02:23;11.70;;;5.68;;
59728;SDS011;45588;51.598;5.618;2022-09-03T18:15:58;11.95;;;5.45;;
59728;SDS011;45588;51.598;5.618;2022-09-03T18:18:32;5.78;;;5.28;;
59728;SDS011;45588;51.598;5.618;2022-09-03T18:21:02;9.73;;;5.45;;
59728;SDS011;45588;51.598;5.618;2022-09-03T18:23:56;7.57;;;5.47;;
59728;SDS011;45588;51.598;5.618;2022-09-03T18:27:03;13.50;;;6.05;;
59728;SDS011;45588;51.598;5.618;2022-09-03T18:29:54;8.48;;;6.03;;
59728;SDS011;45588;51.598;5.618;2022-09-03T18:32:44;7.65;;;5.88;;
59728;SDS011;45588;51.598;5.618;2022-09-03T18:35:29;9.27;;;6.40;;
59728;SDS011;45588;51.598;5.618;2022-09-03T18:38:14;6.63;;;5.90;;
59728;SDS011;45588;51.598;5.618;2022-09-03T18:41:04;10.70;;;6.95;;
59728;SDS011;45588;51.598;5.618;2022-09-03T18:44:02;9.30;;;7.78;;
59728;SDS011;45588;51.598;5.618;2022-09-03T18:50:22;14.30;;;8.80;;
59728;SDS011;45588;51.598;5.618;2022-09-03T18:53:11;13.07;;;8.57;;
59728;SDS011;45588;51.598;5.618;2022-09-03T19:02:05;12.48;;;7.65;;
59728;SDS011;45588;51.598;5.618;2022-09-03T19:05:10;9.02;;;7.38;;
59728;SDS011;45588;51.598;5.618;2022-09-03T19:10:56;7.90;;;7.20;;
59728;SDS011;45588;51.598;5.618;2022-09-03T19:13:48;8.65;;;7.35;;
59728;SDS011;45588;51.598;5.618;2022-09-03T19:19:38;9.60;;;8.60;;
59728;SDS011;45588;51.598;5.618;2022-09-03T19:22:40;15.43;;;8.98;;
59728;SDS011;45588;51.598;5.618;2022-09-03T19:25:25;13.07;;;9.25;;
59728;SDS011;45588;51.598;5.618;2022-09-03T19:28:23;9.85;;;7.43;;
59728;SDS011;45588;51.598;5.618;2022-09-03T19:37:14;10.25;;;8.05;;
59728;SDS011;45588;51.598;5.618;2022-09-03T19:43:02;8.60;;;7.65;;
59728;SDS011;45588;51.598;5.618;2022-09-03T19:54:31;12.18;;;7.85;;
59728;SDS011;45588;51.598;5.618;2022-09-03T19:57:15;10.70;;;9.50;;
59728;SDS011;45588;51.598;5.618;2022-09-03T20:00:02;10.38;;;9.25;;
59728;SDS011;45588;51.598;5.618;2022-09-03T20:02:48;10.02;;;9.05;;
59728;SDS011;45588;51.598;5.618;2022-09-03T20:05:32;10.15;;;8.93;;
59728;SDS011;45588;51.598;5.618;2022-09-03T20:08:19;11.02;;;9.73;;
59728;SDS011;45588;51.598;5.618;2022-09-03T20:11:05;10.75;;;8.20;;